• Join FlightAware (Why Join?)
  • Login
  • US Flag 
09:24PM EST


 

Airport Tracker/Info


-or-


 

Live Flight TrackerFlight Track Log ✈ NKS331 ✈ 28-Apr-2013 ✈ KLGA - KORD

Flight Track Log - Related Links

Times and Time Zones

All times are in EDT time to prevent confusion due to time zone crossing. See the NKS331 flight status page for this flight to view local times or setup timezone preferences in your user account.

Time Position Orientation Groundspeed Altitude Reporting Facility
EDT Latitude Longitude Course Direction KTS MPH feet Rate Location/Type
10:13PM 40.7630 -73.8450 288° West 136 157 1,200  Level FlightAware
10:13PM 40.7480 -73.8380 161° South 149 171 1,900 1,800 Climbing FlightAware
10:14PM 40.7390 -73.8280 140° Southeast 166 191 2,400 1,920 Climbing FlightAware
10:14PM 40.7370 -73.8180 105° East 179 206 2,700 1,560 Climbing FlightAware
10:14PM 40.7430 -73.7970 69° East 212 244 3,200 1,500 Climbing FlightAware
10:14PM 40.7570 -73.7880 26° Northeast 231 266 3,600 1,500 Climbing FlightAware
10:15PM 40.7850 -73.8010 341° North 260 299 4,200 2,160 Climbing FlightAware
10:15PM 40.8120 -73.8320 319° Northwest 274 315 5,600 3,000 Climbing FlightAware
10:16PM 40.8370 -73.8610 319° Northwest 285 328 7,000 3,540 Climbing FlightAware
10:16PM 40.8494 -73.8762 317° Northwest 287 330 7,800 3,540 Climbing FlightAware ADS-B
10:16PM 40.8648 -73.8939 319° Northwest 291 335 8,600 3,180 Climbing FlightAware ADS-B
10:16PM 40.8760 -73.9067 319° Northwest 293 337 9,200 3,180 Climbing FlightAware ADS-B
10:16PM 40.8807 -73.9122 318° Northwest 294 338 9,400 2,280 Climbing FlightAware ADS-B
10:17PM 40.9088 -73.9438 320° Northwest 311 358 10,400 2,100 Climbing FlightAware ADS-B
10:17PM 40.9115 -73.9470 318° Northwest 314 361 10,500 1,020 Climbing FlightAware ADS-B
10:17PM 40.9272 -73.9655 318° Northwest 333 383 10,700 960 Climbing FlightAware ADS-B
10:17PM 40.9331 -73.9738 313° West 338 389 10,800 960 Climbing FlightAware ADS-B
10:17PM 40.9347 -73.9763 310° West 340 391 10,800 960 Level FlightAware ADS-B
10:17PM 40.9379 -73.9823 305° West 344 396 10,900 720 Climbing FlightAware ADS-B
10:17PM 40.9406 -73.9879 303° West 345 397 10,900 1,200 Level FlightAware ADS-B
10:17PM 40.9422 -73.9924 295° West 348 400 11,000 1,500 Climbing FlightAware ADS-B
10:18PM 40.9462 -74.0047 293° West 355 409 11,100 2,100 Climbing FlightAware ADS-B
10:18PM 40.9609 -74.0562 291° West 367 422 12,100 2,400 Climbing FlightAware ADS-B
10:18PM 40.9643 -74.0683 290° West 367 422 12,300 2,160 Climbing FlightAware ADS-B
10:19PM 40.9794 -74.1221 290° West 376 433 13,200 2,280 Climbing FlightAware ADS-B
10:19PM 40.9817 -74.1306 290° West 378 435 13,500 3,480 Climbing FlightAware ADS-B
10:19PM 40.9973 -74.1867 290° West 363 418 15,000 3,600 Climbing FlightAware ADS-B
10:19PM 40.9999 -74.1961 290° West 361 415 15,300 2,520 Climbing FlightAware ADS-B
10:20PM 41.0165 -74.2560 290° West 361 415 16,400 2,400 Climbing FlightAware ADS-B
10:20PM 41.0175 -74.2595 291° West 359 413 16,500 1,320 Climbing FlightAware ADS-B
10:20PM 41.0219 -74.2731 293° West 357 411 16,600 960 Climbing FlightAware ADS-B
10:20PM 41.0246 -74.2805 296° West 357 411 16,700 600 Climbing FlightAware ADS-B
10:20PM 41.0294 -74.2915 300° West 357 411 16,700  Level FlightAware ADS-B
10:20PM 41.0338 -74.3002 304° West 360 414 16,700  Level FlightAware ADS-B
10:20PM 41.0644 -74.3563 306° West 378 435 16,700  Level FlightAware ADS-B
10:21PM 41.0693 -74.3651 306° West 378 435 16,700 480 Level FlightAware ADS-B
10:21PM 41.0900 -74.4028 306° West 382 440 16,900 960 Climbing FlightAware ADS-B
10:21PM 41.0940 -74.4110 303° West 382 440 17,100 2,400 Climbing FlightAware ADS-B
10:21PM 41.0987 -74.4211 302° West 382 440 17,300 1,800 Climbing FlightAware ADS-B
10:21PM 41.1047 -74.4363 298° West 380 437 17,500 2,040 Climbing FlightAware ADS-B
10:21PM 41.1190 -74.4763 295° West 383 441 18,200 2,100 Climbing FlightAware ADS-B
10:22PM 41.1280 -74.5013 296° West 386 444 18,600 2,220 Climbing FlightAware ADS-B
10:22PM 41.1513 -74.5660 296° West 386 444 19,800 2,220 Climbing FlightAware ADS-B
10:22PM 41.1568 -74.5811 296° West 386 444 20,000 1,980 Climbing FlightAware ADS-B
10:23PM 41.1750 -74.6316 296° West 388 447 20,800 1,680 Climbing FlightAware ADS-B
10:23PM 41.1842 -74.6573 295° West 387 445 21,000 1,140 Climbing FlightAware ADS-B
10:23PM 41.1995 -74.7000 295° West 399 459 21,400 1,320 Climbing FlightAware ADS-B
10:24PM 41.2240 -74.7681 296° West 406 467 22,100 1,440 Climbing FlightAware ADS-B
10:24PM 41.2475 -74.8344 295° West 409 471 22,900 1,440 Climbing FlightAware ADS-B
10:25PM 41.2724 -74.9042 295° West 416 479 23,600 1,380 Climbing FlightAware ADS-B
10:25PM 41.2980 -74.9758 295° West 421 484 24,300 1,560 Climbing FlightAware ADS-B
10:26PM 41.3231 -75.0465 295° West 420 483 25,200 1,440 Climbing FlightAware ADS-B
10:26PM 41.3474 -75.1156 295° West 421 484 25,800 1,260 Climbing FlightAware ADS-B
10:27PM 41.3724 -75.1862 295° West 424 488 26,500 1,380 Climbing FlightAware ADS-B
10:27PM 41.3980 -75.2590 295° West 424 488 27,200 1,260 Climbing FlightAware ADS-B
10:28PM 41.4231 -75.3304 295° West 426 490 27,800 1,260 Climbing FlightAware ADS-B
10:28PM 41.4485 -75.4027 295° West 429 494 28,500 2,220 Climbing FlightAware ADS-B
10:29PM 41.4731 -75.4732 295° West 403 464 30,100 2,400 Climbing FlightAware ADS-B
10:29PM 41.4962 -75.5516 291° West 395 455 31,100 1,440 Climbing FlightAware ADS-B
10:30PM 41.5163 -75.6212 291° West 395 455 31,700 780 Climbing FlightAware ADS-B
10:30PM 41.5383 -75.6985 291° West 391 450 32,000 240 Climbing FlightAware ADS-B
10:31PM 41.5584 -75.7694 291° West 389 448 32,000  Level FlightAware ADS-B
10:31PM 41.5784 -75.8395 291° West 394 453 32,000  Level FlightAware ADS-B
10:32PM 41.5982 -75.9089 291° West 396 456 32,000  Level FlightAware ADS-B
10:32PM 41.6182 -75.9793 291° West 398 458 32,000  Level FlightAware ADS-B
10:33PM 41.6380 -76.0494 291° West 399 459 32,000  Level FlightAware ADS-B
10:33PM 41.6575 -76.1191 291° West 402 463 32,000  Level FlightAware ADS-B
10:34PM 41.6793 -76.1966 291° West 405 466 32,000  Level FlightAware ADS-B
10:35PM 41.7006 -76.2718 291° West 408 470 32,000  Level FlightAware ADS-B
10:35PM 41.7231 -76.3527 290° West 410 472 32,000  Level FlightAware ADS-B
10:36PM 41.7441 -76.4279 291° West 412 474 32,000  Level FlightAware ADS-B
10:36PM 41.7650 -76.5030 290° West 413 475 32,000  Level FlightAware
10:36PM 41.7761 -76.5435 290° West 416 479 32,000  Level FlightAware ADS-B
10:37PM 41.8141 -76.6809 290° West 420 483 32,000  Level FlightAware ADS-B
10:38PM 41.8465 -76.7986 290° West 420 483 32,000  Level FlightAware ADS-B
10:40PM 41.9010 -76.9990 290° West 428 493 32,000  Level FlightAware
10:40PM 41.9290 -77.1020 290° West 429 494 32,000  Level FlightAware
10:41PM 41.9590 -77.2140 290° West 429 494 32,000  Level FlightAware
10:42PM 41.9860 -77.3140 290° West 427 491 32,000  Level FlightAware
10:43PM 42.0170 -77.4290 290° West 426 490 32,000  Level FlightAware
10:43PM 42.0430 -77.5290 289° West 426 490 32,000  Level FlightAware
10:44PM 42.0730 -77.6390 290° West 426 490 32,000  Level FlightAware
10:45PM 42.0970 -77.7320 289° West 426 490 32,000  Level FlightAware
10:45PM 42.1290 -77.8520 290° West 425 489 32,000  Level FlightAware
10:46PM 42.1550 -77.9520 289° West 425 489 32,000  Level FlightAware
10:47PM 42.1810 -78.0510 290° West 424 488 32,000  Level FlightAware
10:47PM 42.2100 -78.1640 289° West 423 487 32,000  Level FlightAware
10:48PM 42.2360 -78.2650 289° West 423 487 32,000  Level FlightAware
10:49PM 42.2640 -78.3740 289° West 424 488 32,000  Level FlightAware
10:50PM 42.2900 -78.4760 289° West 424 488 32,000  Level FlightAware
10:50PM 42.3160 -78.5760 289° West 424 488 32,000  Level FlightAware
10:51PM 42.3380 -78.6620 289° West 424 488 32,000  Level FlightAware
10:51PM 42.3570 -78.7370 289° West 424 488 32,000  Level FlightAware
10:52PM 42.3820 -78.8390 288° West 423 487 32,000  Level FlightAware
10:53PM 42.4100 -78.9500 289° West 423 487 32,000  Level FlightAware
10:53PM 42.4360 -79.0500 289° West 423 487 32,000  Level FlightAware
10:54PM 42.4630 -79.1620 288° West 423 487 32,000  Level FlightAware
10:55PM 42.4860 -79.2650 287° West 425 489 32,000  Level FlightAware
10:56PM 42.4960 -79.3830 277° West 427 491 32,000  Level FlightAware
10:56PM 42.5010 -79.4870 274° West 427 491 32,000  Level FlightAware
10:57PM 42.5070 -79.5950 274° West 428 493 32,000  Level FlightAware
10:58PM 42.5120 -79.7170 273° West 427 491 32,000  Level FlightAware
10:58PM 42.5180 -79.8260 274° West 428 493 32,000  Level FlightAware
10:59PM 42.5230 -79.9430 273° West 431 496 32,000  Level FlightAware
11:00PM 42.5270 -80.0480 273° West 433 498 32,000  Level FlightAware
11:00PM 42.5320 -80.1600 274° West 435 501 32,000  Level FlightAware
11:01PM 42.5380 -80.2820 274° West 436 502 32,000  Level FlightAware
11:02PM 42.5420 -80.3920 273° West 436 502 32,000  Level FlightAware
11:02PM 42.5470 -80.5030 274° West 436 502 32,000  Level FlightAware
11:03PM 42.5510 -80.6260 273° West 437 503 32,000  Level FlightAware
11:04PM 42.5550 -80.7330 273° West 437 503 32,000  Level FlightAware
11:05PM 42.5600 -80.8590 273° West 438 504 32,000  Level FlightAware
11:05PM 42.5640 -80.9660 273° West 439 505 32,000  Level FlightAware
11:06PM 42.5680 -81.0860 273° West 440 506 32,000  Level FlightAware
11:07PM 42.5720 -81.1930 273° West 442 509 32,000  Level FlightAware
11:07PM 42.5760 -81.3200 272° West 443 510 32,000  Level FlightAware
11:08PM 42.5830 -81.4000 277° West 445 512 32,000  Level FlightAware
11:09PM 42.5970 -81.5360 278° West 445 512 32,000  Level FlightAware
11:10PM 42.6090 -81.6660 277° West 447 514 32,000  Level FlightAware
11:10PM 42.6180 -81.7710 277° West 447 514 32,000  Level FlightAware
11:11PM 42.6280 -81.8840 277° West 446 513 32,000  Level FlightAware
11:12PM 42.6400 -82.0210 277° West 447 514 32,000  Level FlightAware
11:12PM 42.6480 -82.1150 277° West 448 516 32,000  Level FlightAware
11:13PM 42.6570 -82.2200 277° West 447 514 32,000  Level FlightAware
11:14PM 42.6690 -82.3630 277° West 446 513 32,000  Level FlightAware
11:14PM 42.6760 -82.4550 276° West 445 512 32,000  Level FlightAware
11:15PM 42.6870 -82.5920 276° West 444 511 32,000  Level FlightAware
11:16PM 42.6960 -82.7050 276° West 442 509 32,000  Level FlightAware
11:16PM 42.7050 -82.8180 276° West 440 506 32,000  Level FlightAware
11:17PM 42.7150 -82.9420 276° West 438 504 32,000  Level FlightAware
11:18PM 42.7230 -83.0550 276° West 436 502 32,000  Level FlightAware
11:19PM 42.7320 -83.1680 276° West 434 499 32,000  Level FlightAware
11:19PM 42.7420 -83.3000 276° West 432 497 32,000  Level FlightAware
11:20PM 42.7490 -83.4010 275° West 431 496 32,000  Level FlightAware
11:21PM 42.7560 -83.4920 276° West 431 496 32,000  Level FlightAware
11:21PM 42.7640 -83.6120 275° West 431 496 32,000  Level FlightAware
11:22PM 42.7580 -83.7580 267° West 438 504 32,000  Level FlightAware
11:23PM 42.7500 -83.8610 264° West 443 510 32,000  Level FlightAware
11:24PM 42.7400 -83.9930 264° West 447 514 32,000 60 Level FlightAware
11:24PM 42.7320 -84.1030 264° West 447 514 32,100 60 Climbing FlightAware
11:25PM 42.7230 -84.2180 264° West 445 512 32,100 -120 Level FlightAware
11:26PM 42.7130 -84.3390 264° West 445 512 32,000 -120 Descending FlightAware
11:26PM 42.7040 -84.4520 264° West 445 512 32,000  Level FlightAware
11:27PM 42.6950 -84.5640 264° West 445 512 32,000  Level FlightAware
11:28PM 42.6840 -84.6890 263° West 443 510 32,000  Level FlightAware
11:28PM 42.6750 -84.7950 263° West 443 510 32,000  Level FlightAware
11:29PM 42.6650 -84.9160 264° West 440 506 32,000  Level FlightAware
11:30PM 42.6550 -85.0330 263° West 437 503 32,000  Level FlightAware
11:30PM 42.6460 -85.1390 263° West 436 502 32,000 -120 Level FlightAware
11:31PM 42.6350 -85.2650 263° West 435 501 31,900 -540 Descending FlightAware
11:32PM 42.6260 -85.3640 263° West 424 488 31,300 -1,020 Descending FlightAware
11:33PM 42.6150 -85.4820 263° West 418 481 30,500 -1,080 Descending FlightAware
11:33PM 42.6060 -85.5880 263° West 417 480 29,800 -1,140 Descending FlightAware
11:34PM 42.5960 -85.6900 262° West 416 479 29,000 -1,140 Descending FlightAware
11:35PM 42.5820 -85.8080 261° West 413 475 28,200 -1,200 Descending FlightAware
11:35PM 42.5700 -85.9100 261° West 407 468 27,300 -1,560 Descending FlightAware
11:36PM 42.5570 -86.0230 261° West 399 459 26,000 -1,800 Descending FlightAware
11:37PM 42.5460 -86.1210 261° West 390 449 24,800 -1,740 Descending FlightAware
11:37PM 42.5350 -86.2140 261° West 382 440 23,700 -1,800 Descending FlightAware
11:38PM 42.5210 -86.3250 260° West 371 427 22,300 -1,800 Descending FlightAware
11:39PM 42.5110 -86.4110 261° West 370 426 21,200 -1,740 Descending FlightAware
11:40PM 42.5000 -86.5020 261° West 367 422 20,000 -1,800 Descending FlightAware
11:40PM 42.4870 -86.6060 260° West 364 419 18,700 -1,800 Descending FlightAware
11:41PM 42.4760 -86.6970 261° West 360 414 17,500 -1,800 Descending FlightAware
11:42PM 42.4640 -86.7940 261° West 349 402 16,200 -1,800 Descending FlightAware
11:42PM 42.4540 -86.8780 261° West 346 398 15,000 -1,800 Descending FlightAware
11:43PM 42.4440 -86.9540 260° West 345 397 14,000 -1,740 Descending FlightAware
11:44PM 42.4310 -87.0610 261° West 340 391 12,600 -1,560 Descending FlightAware
11:44PM 42.4200 -87.1430 260° West 333 383 11,700 -1,440 Descending FlightAware
11:45PM 42.4090 -87.2340 261° West 331 381 10,600 -1,140 Descending FlightAware
11:46PM 42.3990 -87.3120 260° West 333 383 10,100 -360 Descending FlightAware
11:47PM 42.3740 -87.4080 251° West 341 392 10,100  Level FlightAware
11:47PM 42.3500 -87.4820 246° West 343 395 10,100  Level FlightAware
11:48PM 42.3220 -87.5590 244° Southwest 345 397 10,100  Level FlightAware
11:49PM 42.2890 -87.6500 244° Southwest 345 397 10,100  Level FlightAware
11:49PM 42.2620 -87.7260 244° Southwest 316 364 10,100 -360 Level FlightAware
11:50PM 42.2450 -87.7740 244° Southwest 296 341 9,700 -1,140 Descending FlightAware
11:50PM 42.2300 -87.8140 243° Southwest 293 337 9,100 -1,980 Descending FlightAware
11:51PM 42.2120 -87.8640 244° Southwest 290 334 7,900 -2,400 Descending FlightAware
11:51PM 42.1960 -87.9150 247° West 282 325 6,700 -2,220 Descending FlightAware
11:52PM 42.1930 -87.9560 264° West 275 316 5,900 -2,220 Descending FlightAware
11:52PM 42.1900 -88.0090 266° West 270 311 4,700 -1,980 Descending FlightAware
11:53PM 42.1820 -88.0460 254° West 259 298 4,100 -780 Descending FlightAware
11:53PM 42.1580 -88.0790 226° Southwest 228 262 4,000  Descending FlightAware
11:53PM 42.1440 -88.0860 200° South 217 250 4,100  Climbing FlightAware
11:54PM 42.1210 -88.0780 166° South 204 235 4,000 -780 Descending FlightAware
11:54PM 42.0990 -88.0550 142° Southeast 201 231 3,400 -1,140 Descending FlightAware
11:55PM 42.0780 -88.0320 141° Southeast 194 223 2,900 -1,020 Descending FlightAware
11:55PM 42.0600 -88.0120 140° Southeast 183 211 2,500 -900 Descending FlightAware
11:55PM 42.0520 -88.0020 137° Southeast 176 203 2,300 -840 Descending FlightAware
11:56PM 42.0340 -87.9820 140° Southeast 155 178 1,900 -900 Descending FlightAware
11:56PM 42.0210 -87.9670 139° Southeast 138 159 1,500 -780 Descending FlightAware
11:57PM 42.0060 -87.9510 142° Southeast 133 153 1,200 -600 Descending FlightAware
11:57PM 41.9980 -87.9420 140° Southeast 132 152 1,000 -600 Descending FlightAware